Flight Track Log - Related Links

Times and Time Zones

All times are in EDT time to prevent confusion due to time zone crossing. See the EJA122 flight status page for this flight to view local times or setup timezone preferences in your user account.

Time Position Orientation Groundspeed Altitude Reporting Facility
EDT Latitude Longitude Course Direction KTS MPH feet Rate Location/Type
Fri 05:37:13 PM 41.6431 -86.4986 270° West 251 289 6,000  Level Chicago Center
Fri 05:38:15 PM 41.6258 -86.5892 256° West 252 290 6,000  Level Chicago Center
Fri 05:39:17 PM 41.6078 -86.6814 255° West 256 295 6,000  Level Chicago Center
Fri 05:40:19 PM 41.5875 -86.7864 256° West 263 303 6,000  Level Chicago Center
Fri 05:41:00 PM 41.7376 -86.8212 270° West  Level Estimated
Fri 05:41:21 PM 41.5697 -86.8814 256° West 265 305 6,000  Level Chicago Center
Fri 05:42:00 PM 41.7423 -86.9052 270° West  Level Estimated
Fri 05:42:23 PM 41.5483 -86.9900 255° West 256 295 6,000  Level Chicago Center
Fri 05:43:25 PM 41.5314 -87.0808 256° West 253 291 6,000  Level Chicago Center
Fri 05:44:27 PM 41.5150 -87.1728 257° West 254 292 6,000  Level Chicago Center
Fri 05:45:29 PM 41.5219 -87.2644 276° West 250 288 6,000  Level Chicago Center
Fri 05:46:32 PM 41.5531 -87.3478 297° West 254 292 6,000 -432 Level Chicago Center
Fri 05:47:34 PM 41.5664 -87.4281 283° West 228 262 5,100 -919 Descending Chicago Center
Fri 05:48:36 PM 41.6067 -87.4928 310° West 201 231 4,100 -532 Descending Chicago Center
Fri 05:49:38 PM 41.6361 -87.5397 310° West 182 209 4,000 -97 Descending Chicago Center
Fri 05:50:40 PM 41.6683 -87.5869 312° West 175 201 3,900 -532 Descending Chicago Center
Fri 05:51:42 PM 41.7008 -87.6350 312° West 175 201 2,900 -919 Descending Chicago Center
Fri 05:52:44 PM 41.7333 -87.6803 314° West 156 180 2,000 -726 Descending Chicago Center
Fri 05:53:46 PM 41.7547 -87.7092 315° West 125 144 1,400 -484 Descending Chicago Center
Fri 05:54:48 PM 41.7742 -87.7356 315° West 119 137 1,000 -387 Descending Chicago Center
Fri 05:56:00 PM 41.7833 -87.7500 334° Northwest  Level FlightAware Approximate

Login

Don't have an account? Register now (free) for customized features, flight alerts, and more!